sensor_id;sensor_type;location;lat;lon;timestamp;P1;durP1;ratioP1;P2;durP2;ratioP2
12896;SDS011;6516;35.028;32.372;2023-10-19T00:00:54;17.52;;;5.35;;
12896;SDS011;6516;35.028;32.372;2023-10-19T00:03:21;20.23;;;5.38;;
12896;SDS011;6516;35.028;32.372;2023-10-19T00:05:55;18.20;;;5.53;;
12896;SDS011;6516;35.028;32.372;2023-10-19T00:08:22;17.20;;;5.78;;
12896;SDS011;6516;35.028;32.372;2023-10-19T00:10:50;12.35;;;4.60;;
12896;SDS011;6516;35.028;32.372;2023-10-19T00:13:26;16.35;;;5.03;;
12896;SDS011;6516;35.028;32.372;2023-10-19T00:15:55;15.43;;;5.30;;
12896;SDS011;6516;35.028;32.372;2023-10-19T00:18:24;20.17;;;6.23;;
12896;SDS011;6516;35.028;32.372;2023-10-19T00:20:54;16.27;;;5.10;;
12896;SDS011;6516;35.028;32.372;2023-10-19T00:23:25;21.25;;;6.35;;
12896;SDS011;6516;35.028;32.372;2023-10-19T00:25:57;18.30;;;6.45;;
12896;SDS011;6516;35.028;32.372;2023-10-19T00:28:30;19.73;;;6.50;;
12896;SDS011;6516;35.028;32.372;2023-10-19T00:31:01;19.43;;;6.90;;
12896;SDS011;6516;35.028;32.372;2023-10-19T00:33:30;25.15;;;6.57;;
12896;SDS011;6516;35.028;32.372;2023-10-19T00:36:00;20.38;;;5.95;;
12896;SDS011;6516;35.028;32.372;2023-10-19T00:38:33;12.45;;;5.93;;
12896;SDS011;6516;35.028;32.372;2023-10-19T00:41:13;16.10;;;5.68;;
12896;SDS011;6516;35.028;32.372;2023-10-19T00:43:46;16.67;;;5.53;;
12896;SDS011;6516;35.028;32.372;2023-10-19T00:46:22;16.35;;;5.60;;
12896;SDS011;6516;35.028;32.372;2023-10-19T00:48:57;14.02;;;5.20;;
12896;SDS011;6516;35.028;32.372;2023-10-19T00:51:33;17.35;;;5.68;;
12896;SDS011;6516;35.028;32.372;2023-10-19T00:54:19;18.60;;;5.40;;
12896;SDS011;6516;35.028;32.372;2023-10-19T00:56:57;18.73;;;6.30;;
12896;SDS011;6516;35.028;32.372;2023-10-19T00:59:30;23.60;;;6.85;;
12896;SDS011;6516;35.028;32.372;2023-10-19T01:02:01;20.58;;;5.80;;
12896;SDS011;6516;35.028;32.372;2023-10-19T01:04:42;19.40;;;5.53;;
12896;SDS011;6516;35.028;32.372;2023-10-19T01:07:13;20.83;;;5.18;;
12896;SDS011;6516;35.028;32.372;2023-10-19T01:09:47;19.90;;;5.27;;
12896;SDS011;6516;35.028;32.372;2023-10-19T01:12:18;18.85;;;5.40;;
12896;SDS011;6516;35.028;32.372;2023-10-19T01:15:05;15.48;;;5.20;;
12896;SDS011;6516;35.028;32.372;2023-10-19T01:17:38;19.17;;;5.60;;
12896;SDS011;6516;35.028;32.372;2023-10-19T01:20:09;15.15;;;5.32;;
12896;SDS011;6516;35.028;32.372;2023-10-19T01:22:48;17.33;;;5.70;;
12896;SDS011;6516;35.028;32.372;2023-10-19T01:25:20;13.30;;;5.97;;
12896;SDS011;6516;35.028;32.372;2023-10-19T01:28:00;15.55;;;6.70;;
12896;SDS011;6516;35.028;32.372;2023-10-19T01:30:34;14.45;;;5.65;;
12896;SDS011;6516;35.028;32.372;2023-10-19T01:33:03;14.43;;;5.57;;
12896;SDS011;6516;35.028;32.372;2023-10-19T01:35:38;12.83;;;5.83;;
12896;SDS011;6516;35.028;32.372;2023-10-19T01:38:20;14.63;;;5.78;;
12896;SDS011;6516;35.028;32.372;2023-10-19T01:40:48;12.68;;;5.45;;
12896;SDS011;6516;35.028;32.372;2023-10-19T01:43:16;12.95;;;5.78;;
12896;SDS011;6516;35.028;32.372;2023-10-19T01:45:46;15.00;;;5.38;;
12896;SDS011;6516;35.028;32.372;2023-10-19T01:48:13;13.63;;;4.80;;
12896;SDS011;6516;35.028;32.372;2023-10-19T01:50:42;17.58;;;4.90;;
12896;SDS011;6516;35.028;32.372;2023-10-19T01:53:09;9.90;;;4.70;;
12896;SDS011;6516;35.028;32.372;2023-10-19T01:55:43;10.82;;;4.70;;
12896;SDS011;6516;35.028;32.372;2023-10-19T01:58:12;10.93;;;4.80;;
12896;SDS011;6516;35.028;32.372;2023-10-19T02:00:41;13.60;;;4.70;;
12896;SDS011;6516;35.028;32.372;2023-10-19T02:03:09;12.13;;;4.70;;
12896;SDS011;6516;35.028;32.372;2023-10-19T02:05:36;13.00;;;4.80;;
12896;SDS011;6516;35.028;32.372;2023-10-19T02:08:06;12.38;;;4.70;;
12896;SDS011;6516;35.028;32.372;2023-10-19T02:10:34;13.85;;;4.55;;
12896;SDS011;6516;35.028;32.372;2023-10-19T02:13:04;11.00;;;4.40;;
12896;SDS011;6516;35.028;32.372;2023-10-19T02:15:32;10.25;;;4.60;;
12896;SDS011;6516;35.028;32.372;2023-10-19T02:18:00;9.85;;;4.90;;
12896;SDS011;6516;35.028;32.372;2023-10-19T02:20:28;12.23;;;4.63;;
12896;SDS011;6516;35.028;32.372;2023-10-19T02:22:57;10.68;;;4.47;;
12896;SDS011;6516;35.028;32.372;2023-10-19T02:25:29;9.53;;;5.23;;
12896;SDS011;6516;35.028;32.372;2023-10-19T02:27:59;15.57;;;4.90;;
12896;SDS011;6516;35.028;32.372;2023-10-19T02:30:29;9.73;;;4.80;;
12896;SDS011;6516;35.028;32.372;2023-10-19T02:32:56;14.38;;;4.70;;
12896;SDS011;6516;35.028;32.372;2023-10-19T02:35:25;12.75;;;5.28;;
12896;SDS011;6516;35.028;32.372;2023-10-19T02:37:52;12.60;;;5.30;;
12896;SDS011;6516;35.028;32.372;2023-10-19T02:40:20;11.70;;;5.38;;
12896;SDS011;6516;35.028;32.372;2023-10-19T02:42:49;13.57;;;6.20;;
12896;SDS011;6516;35.028;32.372;2023-10-19T02:45:18;10.68;;;5.32;;
12896;SDS011;6516;35.028;32.372;2023-10-19T02:47:47;11.10;;;5.18;;
12896;SDS011;6516;35.028;32.372;2023-10-19T02:50:15;12.13;;;4.97;;
12896;SDS011;6516;35.028;32.372;2023-10-19T02:52:47;10.75;;;5.32;;
12896;SDS011;6516;35.028;32.372;2023-10-19T02:55:16;12.20;;;5.30;;
12896;SDS011;6516;35.028;32.372;2023-10-19T02:57:43;10.82;;;4.93;;
12896;SDS011;6516;35.028;32.372;2023-10-19T03:00:12;10.73;;;5.05;;
12896;SDS011;6516;35.028;32.372;2023-10-19T03:02:39;16.47;;;5.40;;
12896;SDS011;6516;35.028;32.372;2023-10-19T03:05:09;10.85;;;5.00;;
12896;SDS011;6516;35.028;32.372;2023-10-19T03:07:39;10.52;;;4.53;;
12896;SDS011;6516;35.028;32.372;2023-10-19T03:10:10;11.65;;;5.07;;
12896;SDS011;6516;35.028;32.372;2023-10-19T03:12:48;13.10;;;5.40;;
12896;SDS011;6516;35.028;32.372;2023-10-19T03:15:18;10.50;;;5.20;;
12896;SDS011;6516;35.028;32.372;2023-10-19T03:17:46;14.98;;;4.97;;
12896;SDS011;6516;35.028;32.372;2023-10-19T03:20:16;18.88;;;6.10;;
12896;SDS011;6516;35.028;32.372;2023-10-19T03:22:43;12.75;;;5.10;;
12896;SDS011;6516;35.028;32.372;2023-10-19T03:25:12;15.77;;;6.05;;
12896;SDS011;6516;35.028;32.372;2023-10-19T03:27:56;15.47;;;5.93;;
12896;SDS011;6516;35.028;32.372;2023-10-19T03:30:31;14.68;;;6.85;;
12896;SDS011;6516;35.028;32.372;2023-10-19T03:33:04;12.25;;;6.80;;
12896;SDS011;6516;35.028;32.372;2023-10-19T03:35:36;15.40;;;7.65;;
12896;SDS011;6516;35.028;32.372;2023-10-19T03:38:06;16.00;;;7.95;;
12896;SDS011;6516;35.028;32.372;2023-10-19T03:40:40;19.57;;;8.70;;
12896;SDS011;6516;35.028;32.372;2023-10-19T03:43:12;16.50;;;8.77;;
12896;SDS011;6516;35.028;32.372;2023-10-19T03:45:46;21.92;;;8.77;;
12896;SDS011;6516;35.028;32.372;2023-10-19T03:48:18;15.88;;;8.93;;
12896;SDS011;6516;35.028;32.372;2023-10-19T03:50:53;15.35;;;9.43;;
12896;SDS011;6516;35.028;32.372;2023-10-19T03:53:22;19.83;;;9.67;;
12896;SDS011;6516;35.028;32.372;2023-10-19T03:55:50;18.95;;;10.23;;
12896;SDS011;6516;35.028;32.372;2023-10-19T03:58:20;20.00;;;11.43;;
12896;SDS011;6516;35.028;32.372;2023-10-19T04:00:48;17.33;;;11.63;;
12896;SDS011;6516;35.028;32.372;2023-10-19T04:03:16;22.38;;;11.45;;
12896;SDS011;6516;35.028;32.372;2023-10-19T04:05:44;19.37;;;11.43;;
12896;SDS011;6516;35.028;32.372;2023-10-19T04:08:16;20.52;;;10.98;;
12896;SDS011;6516;35.028;32.372;2023-10-19T04:10:46;24.27;;;11.93;;
12896;SDS011;6516;35.028;32.372;2023-10-19T04:13:33;28.83;;;12.77;;
12896;SDS011;6516;35.028;32.372;2023-10-19T04:16:02;21.85;;;11.68;;
12896;SDS011;6516;35.028;32.372;2023-10-19T04:18:31;29.33;;;12.37;;
12896;SDS011;6516;35.028;32.372;2023-10-19T04:21:00;24.10;;;12.43;;
12896;SDS011;6516;35.028;32.372;2023-10-19T04:23:30;23.92;;;12.93;;
12896;SDS011;6516;35.028;32.372;2023-10-19T04:26:00;21.85;;;12.25;;
12896;SDS011;6516;35.028;32.372;2023-10-19T04:28:32;26.25;;;12.15;;
12896;SDS011;6516;35.028;32.372;2023-10-19T04:31:06;24.03;;;12.00;;
12896;SDS011;6516;35.028;32.372;2023-10-19T04:33:39;28.10;;;13.65;;
12896;SDS011;6516;35.028;32.372;2023-10-19T04:36:14;20.88;;;12.45;;
12896;SDS011;6516;35.028;32.372;2023-10-19T04:38:48;20.83;;;11.57;;
12896;SDS011;6516;35.028;32.372;2023-10-19T04:41:17;22.13;;;12.55;;
12896;SDS011;6516;35.028;32.372;2023-10-19T04:43:44;22.10;;;11.83;;
12896;SDS011;6516;35.028;32.372;2023-10-19T04:46:15;18.45;;;11.88;;
12896;SDS011;6516;35.028;32.372;2023-10-19T04:48:44;17.45;;;10.90;;
12896;SDS011;6516;35.028;32.372;2023-10-19T04:51:11;21.35;;;12.10;;
12896;SDS011;6516;35.028;32.372;2023-10-19T04:53:39;21.73;;;11.07;;
12896;SDS011;6516;35.028;32.372;2023-10-19T04:56:09;24.03;;;10.80;;
12896;SDS011;6516;35.028;32.372;2023-10-19T04:58:38;21.13;;;10.77;;
12896;SDS011;6516;35.028;32.372;2023-10-19T05:01:05;19.73;;;10.75;;
12896;SDS011;6516;35.028;32.372;2023-10-19T05:03:33;17.95;;;10.57;;
12896;SDS011;6516;35.028;32.372;2023-10-19T05:06:01;19.73;;;10.05;;
12896;SDS011;6516;35.028;32.372;2023-10-19T05:08:29;18.20;;;10.47;;
12896;SDS011;6516;35.028;32.372;2023-10-19T05:10:58;15.63;;;9.80;;
12896;SDS011;6516;35.028;32.372;2023-10-19T05:13:27;17.85;;;9.95;;
12896;SDS011;6516;35.028;32.372;2023-10-19T05:15:56;17.33;;;9.73;;
12896;SDS011;6516;35.028;32.372;2023-10-19T05:18:24;16.52;;;9.07;;
12896;SDS011;6516;35.028;32.372;2023-10-19T05:20:52;16.57;;;9.30;;
12896;SDS011;6516;35.028;32.372;2023-10-19T05:23:22;14.68;;;9.25;;
12896;SDS011;6516;35.028;32.372;2023-10-19T05:25:50;19.80;;;9.80;;
12896;SDS011;6516;35.028;32.372;2023-10-19T05:28:19;14.00;;;8.20;;
12896;SDS011;6516;35.028;32.372;2023-10-19T05:30:49;12.82;;;7.82;;
12896;SDS011;6516;35.028;32.372;2023-10-19T05:33:17;13.63;;;8.20;;
12896;SDS011;6516;35.028;32.372;2023-10-19T05:35:46;11.43;;;8.85;;
12896;SDS011;6516;35.028;32.372;2023-10-19T05:38:14;12.30;;;8.25;;
12896;SDS011;6516;35.028;32.372;2023-10-19T05:40:44;11.00;;;8.38;;
12896;SDS011;6516;35.028;32.372;2023-10-19T05:43:12;12.77;;;7.68;;
12896;SDS011;6516;35.028;32.372;2023-10-19T05:45:41;11.57;;;6.93;;
12896;SDS011;6516;35.028;32.372;2023-10-19T05:48:10;9.43;;;7.00;;
12896;SDS011;6516;35.028;32.372;2023-10-19T05:50:38;10.50;;;7.00;;
12896;SDS011;6516;35.028;32.372;2023-10-19T05:53:07;10.63;;;6.47;;
12896;SDS011;6516;35.028;32.372;2023-10-19T05:55:35;10.50;;;6.05;;
12896;SDS011;6516;35.028;32.372;2023-10-19T05:58:04;9.37;;;5.80;;
12896;SDS011;6516;35.028;32.372;2023-10-19T06:00:34;9.63;;;5.30;;
12896;SDS011;6516;35.028;32.372;2023-10-19T06:03:01;8.70;;;5.68;;
12896;SDS011;6516;35.028;32.372;2023-10-19T06:05:32;10.23;;;5.53;;
12896;SDS011;6516;35.028;32.372;2023-10-19T06:08:00;10.20;;;5.20;;
12896;SDS011;6516;35.028;32.372;2023-10-19T06:10:29;10.57;;;5.00;;
12896;SDS011;6516;35.028;32.372;2023-10-19T06:12:57;8.18;;;4.72;;
12896;SDS011;6516;35.028;32.372;2023-10-19T06:15:25;8.32;;;4.68;;
12896;SDS011;6516;35.028;32.372;2023-10-19T06:17:56;10.02;;;4.90;;
12896;SDS011;6516;35.028;32.372;2023-10-19T06:20:24;6.55;;;4.47;;
12896;SDS011;6516;35.028;32.372;2023-10-19T06:22:54;8.30;;;4.50;;
12896;SDS011;6516;35.028;32.372;2023-10-19T06:25:29;9.15;;;4.43;;
12896;SDS011;6516;35.028;32.372;2023-10-19T06:27:58;8.18;;;4.70;;
12896;SDS011;6516;35.028;32.372;2023-10-19T06:30:26;6.50;;;4.28;;
12896;SDS011;6516;35.028;32.372;2023-10-19T06:32:55;8.75;;;4.30;;
12896;SDS011;6516;35.028;32.372;2023-10-19T06:35:26;6.93;;;4.47;;
12896;SDS011;6516;35.028;32.372;2023-10-19T06:37:58;8.45;;;4.30;;
12896;SDS011;6516;35.028;32.372;2023-10-19T06:40:28;6.95;;;4.70;;
12896;SDS011;6516;35.028;32.372;2023-10-19T06:42:57;9.10;;;4.93;;
12896;SDS011;6516;35.028;32.372;2023-10-19T06:45:27;8.07;;;4.63;;
12896;SDS011;6516;35.028;32.372;2023-10-19T06:47:56;8.97;;;5.20;;
12896;SDS011;6516;35.028;32.372;2023-10-19T06:50:26;9.45;;;4.80;;
12896;SDS011;6516;35.028;32.372;2023-10-19T06:52:54;9.00;;;5.53;;
12896;SDS011;6516;35.028;32.372;2023-10-19T06:55:23;6.45;;;4.72;;
12896;SDS011;6516;35.028;32.372;2023-10-19T06:57:53;9.23;;;4.95;;
12896;SDS011;6516;35.028;32.372;2023-10-19T07:00:22;8.43;;;5.30;;
12896;SDS011;6516;35.028;32.372;2023-10-19T07:02:52;10.27;;;5.47;;
12896;SDS011;6516;35.028;32.372;2023-10-19T07:05:22;8.15;;;5.30;;
12896;SDS011;6516;35.028;32.372;2023-10-19T07:07:51;8.20;;;5.25;;
12896;SDS011;6516;35.028;32.372;2023-10-19T07:10:21;8.57;;;5.20;;
12896;SDS011;6516;35.028;32.372;2023-10-19T07:12:52;8.93;;;5.33;;
12896;SDS011;6516;35.028;32.372;2023-10-19T07:15:21;8.43;;;5.43;;
12896;SDS011;6516;35.028;32.372;2023-10-19T07:17:50;9.10;;;5.80;;
12896;SDS011;6516;35.028;32.372;2023-10-19T07:20:19;9.88;;;5.80;;
12896;SDS011;6516;35.028;32.372;2023-10-19T07:22:54;8.90;;;5.32;;
12896;SDS011;6516;35.028;32.372;2023-10-19T07:25:27;8.67;;;5.40;;
12896;SDS011;6516;35.028;32.372;2023-10-19T07:27:54;8.23;;;5.35;;
12896;SDS011;6516;35.028;32.372;2023-10-19T07:30:25;8.45;;;5.53;;
12896;SDS011;6516;35.028;32.372;2023-10-19T07:32:53;7.35;;;5.53;;
12896;SDS011;6516;35.028;32.372;2023-10-19T07:35:23;8.88;;;5.63;;
12896;SDS011;6516;35.028;32.372;2023-10-19T07:37:52;8.57;;;5.70;;
12896;SDS011;6516;35.028;32.372;2023-10-19T07:40:22;9.45;;;5.85;;
12896;SDS011;6516;35.028;32.372;2023-10-19T07:42:52;8.65;;;5.35;;
12896;SDS011;6516;35.028;32.372;2023-10-19T07:45:20;7.50;;;5.47;;
12896;SDS011;6516;35.028;32.372;2023-10-19T07:47:48;7.10;;;5.32;;
12896;SDS011;6516;35.028;32.372;2023-10-19T07:50:16;8.50;;;5.40;;
12896;SDS011;6516;35.028;32.372;2023-10-19T07:52:44;9.25;;;5.78;;
12896;SDS011;6516;35.028;32.372;2023-10-19T07:55:13;10.63;;;5.85;;
12896;SDS011;6516;35.028;32.372;2023-10-19T07:57:42;7.88;;;5.57;;
12896;SDS011;6516;35.028;32.372;2023-10-19T08:00:12;6.50;;;4.80;;
12896;SDS011;6516;35.028;32.372;2023-10-19T08:02:40;7.53;;;5.37;;
12896;SDS011;6516;35.028;32.372;2023-10-19T08:05:10;7.35;;;5.10;;
12896;SDS011;6516;35.028;32.372;2023-10-19T08:07:43;7.80;;;4.80;;
12896;SDS011;6516;35.028;32.372;2023-10-19T08:10:12;7.88;;;5.00;;
12896;SDS011;6516;35.028;32.372;2023-10-19T08:12:43;7.68;;;4.70;;
12896;SDS011;6516;35.028;32.372;2023-10-19T08:15:15;7.33;;;4.73;;
12896;SDS011;6516;35.028;32.372;2023-10-19T08:17:47;7.18;;;5.10;;
12896;SDS011;6516;35.028;32.372;2023-10-19T08:20:16;6.97;;;4.68;;
12896;SDS011;6516;35.028;32.372;2023-10-19T08:22:48;6.72;;;4.85;;
12896;SDS011;6516;35.028;32.372;2023-10-19T08:25:16;7.10;;;4.78;;
12896;SDS011;6516;35.028;32.372;2023-10-19T08:27:44;9.13;;;5.57;;
12896;SDS011;6516;35.028;32.372;2023-10-19T08:30:16;7.53;;;4.82;;
12896;SDS011;6516;35.028;32.372;2023-10-19T08:32:46;6.60;;;4.90;;
12896;SDS011;6516;35.028;32.372;2023-10-19T08:35:14;6.75;;;4.55;;
12896;SDS011;6516;35.028;32.372;2023-10-19T08:37:46;7.28;;;4.82;;
12896;SDS011;6516;35.028;32.372;2023-10-19T08:40:14;7.47;;;4.83;;
12896;SDS011;6516;35.028;32.372;2023-10-19T08:42:43;7.93;;;5.40;;
12896;SDS011;6516;35.028;32.372;2023-10-19T08:45:13;7.65;;;5.10;;
12896;SDS011;6516;35.028;32.372;2023-10-19T08:47:43;7.07;;;5.03;;
12896;SDS011;6516;35.028;32.372;2023-10-19T08:50:21;7.45;;;5.18;;
12896;SDS011;6516;35.028;32.372;2023-10-19T08:52:50;7.23;;;5.30;;
12896;SDS011;6516;35.028;32.372;2023-10-19T08:55:21;7.45;;;5.60;;
12896;SDS011;6516;35.028;32.372;2023-10-19T08:57:50;6.63;;;4.95;;
12896;SDS011;6516;35.028;32.372;2023-10-19T09:00:20;7.35;;;5.20;;
12896;SDS011;6516;35.028;32.372;2023-10-19T09:02:50;7.40;;;5.57;;
12896;SDS011;6516;35.028;32.372;2023-10-19T09:05:18;7.93;;;5.50;;
12896;SDS011;6516;35.028;32.372;2023-10-19T09:07:48;9.57;;;5.43;;
12896;SDS011;6516;35.028;32.372;2023-10-19T09:10:20;8.48;;;5.10;;
12896;SDS011;6516;35.028;32.372;2023-10-19T09:12:58;7.85;;;4.63;;
12896;SDS011;6516;35.028;32.372;2023-10-19T09:15:29;7.53;;;5.15;;
12896;SDS011;6516;35.028;32.372;2023-10-19T09:17:59;8.10;;;5.10;;
12896;SDS011;6516;35.028;32.372;2023-10-19T09:20:40;7.47;;;4.90;;
12896;SDS011;6516;35.028;32.372;2023-10-19T09:23:18;9.23;;;4.85;;
12896;SDS011;6516;35.028;32.372;2023-10-19T09:25:50;8.05;;;5.20;;
12896;SDS011;6516;35.028;32.372;2023-10-19T09:28:19;8.50;;;5.35;;
12896;SDS011;6516;35.028;32.372;2023-10-19T09:30:50;7.33;;;5.23;;
12896;SDS011;6516;35.028;32.372;2023-10-19T09:33:19;8.20;;;5.13;;
12896;SDS011;6516;35.028;32.372;2023-10-19T09:35:49;7.43;;;5.28;;
12896;SDS011;6516;35.028;32.372;2023-10-19T09:38:18;7.78;;;5.20;;
12896;SDS011;6516;35.028;32.372;2023-10-19T09:40:47;8.98;;;5.65;;
12896;SDS011;6516;35.028;32.372;2023-10-19T09:43:15;6.97;;;4.63;;
12896;SDS011;6516;35.028;32.372;2023-10-19T09:45:53;8.57;;;5.50;;
12896;SDS011;6516;35.028;32.372;2023-10-19T09:48:25;9.75;;;5.10;;
12896;SDS011;6516;35.028;32.372;2023-10-19T09:50:54;8.23;;;5.38;;
12896;SDS011;6516;35.028;32.372;2023-10-19T09:53:24;7.72;;;4.95;;
12896;SDS011;6516;35.028;32.372;2023-10-19T09:55:54;7.40;;;4.90;;
12896;SDS011;6516;35.028;32.372;2023-10-19T09:58:27;6.55;;;4.68;;
12896;SDS011;6516;35.028;32.372;2023-10-19T10:01:04;9.23;;;4.55;;
12896;SDS011;6516;35.028;32.372;2023-10-19T10:03:47;7.88;;;5.35;;
12896;SDS011;6516;35.028;32.372;2023-10-19T10:06:17;9.38;;;5.35;;
12896;SDS011;6516;35.028;32.372;2023-10-19T10:08:55;6.97;;;5.13;;
12896;SDS011;6516;35.028;32.372;2023-10-19T10:11:26;8.80;;;5.50;;
12896;SDS011;6516;35.028;32.372;2023-10-19T10:13:55;8.10;;;5.25;;
12896;SDS011;6516;35.028;32.372;2023-10-19T10:16:25;9.52;;;5.43;;
12896;SDS011;6516;35.028;32.372;2023-10-19T10:18:55;8.00;;;5.10;;
12896;SDS011;6516;35.028;32.372;2023-10-19T10:21:25;8.57;;;5.00;;
12896;SDS011;6516;35.028;32.372;2023-10-19T10:23:55;7.95;;;5.07;;
12896;SDS011;6516;35.028;32.372;2023-10-19T10:26:25;7.97;;;5.40;;
12896;SDS011;6516;35.028;32.372;2023-10-19T10:29:11;8.90;;;4.90;;
12896;SDS011;6516;35.028;32.372;2023-10-19T10:31:46;8.80;;;5.25;;
12896;SDS011;6516;35.028;32.372;2023-10-19T10:37:10;8.05;;;4.55;;
12896;SDS011;6516;35.028;32.372;2023-10-19T10:39:39;8.02;;;4.80;;
12896;SDS011;6516;35.028;32.372;2023-10-19T10:42:10;7.65;;;4.25;;
12896;SDS011;6516;35.028;32.372;2023-10-19T10:44:38;6.70;;;4.35;;
12896;SDS011;6516;35.028;32.372;2023-10-19T10:47:09;6.80;;;4.30;;
12896;SDS011;6516;35.028;32.372;2023-10-19T10:49:49;8.07;;;4.35;;
12896;SDS011;6516;35.028;32.372;2023-10-19T10:52:24;9.68;;;4.65;;
12896;SDS011;6516;35.028;32.372;2023-10-19T10:54:54;8.15;;;4.35;;
12896;SDS011;6516;35.028;32.372;2023-10-19T10:57:22;6.47;;;4.68;;
12896;SDS011;6516;35.028;32.372;2023-10-19T11:00:03;6.07;;;4.10;;
12896;SDS011;6516;35.028;32.372;2023-10-19T11:02:35;6.97;;;4.28;;
12896;SDS011;6516;35.028;32.372;2023-10-19T11:05:08;7.10;;;4.20;;
12896;SDS011;6516;35.028;32.372;2023-10-19T11:07:37;6.88;;;4.80;;
12896;SDS011;6516;35.028;32.372;2023-10-19T11:10:05;6.55;;;4.50;;
12896;SDS011;6516;35.028;32.372;2023-10-19T11:12:35;8.07;;;4.53;;
12896;SDS011;6516;35.028;32.372;2023-10-19T11:15:04;6.60;;;4.35;;
12896;SDS011;6516;35.028;32.372;2023-10-19T11:17:43;6.82;;;4.32;;
12896;SDS011;6516;35.028;32.372;2023-10-19T11:20:20;6.95;;;4.20;;
12896;SDS011;6516;35.028;32.372;2023-10-19T11:22:50;7.20;;;4.18;;
12896;SDS011;6516;35.028;32.372;2023-10-19T11:25:21;6.73;;;4.23;;
12896;SDS011;6516;35.028;32.372;2023-10-19T11:27:53;7.10;;;5.07;;
12896;SDS011;6516;35.028;32.372;2023-10-19T11:30:25;7.00;;;4.35;;
12896;SDS011;6516;35.028;32.372;2023-10-19T11:32:56;9.10;;;4.68;;
12896;SDS011;6516;35.028;32.372;2023-10-19T11:35:25;6.18;;;4.18;;
12896;SDS011;6516;35.028;32.372;2023-10-19T11:37:55;6.43;;;4.00;;
12896;SDS011;6516;35.028;32.372;2023-10-19T11:40:26;6.55;;;4.35;;
12896;SDS011;6516;35.028;32.372;2023-10-19T11:42:54;7.20;;;4.50;;
12896;SDS011;6516;35.028;32.372;2023-10-19T11:45:23;6.00;;;4.45;;
12896;SDS011;6516;35.028;32.372;2023-10-19T11:47:51;6.65;;;4.30;;
12896;SDS011;6516;35.028;32.372;2023-10-19T11:50:21;6.23;;;4.40;;
12896;SDS011;6516;35.028;32.372;2023-10-19T11:52:49;6.30;;;4.28;;
12896;SDS011;6516;35.028;32.372;2023-10-19T11:55:17;6.10;;;4.28;;
12896;SDS011;6516;35.028;32.372;2023-10-19T11:57:46;6.75;;;4.40;;
12896;SDS011;6516;35.028;32.372;2023-10-19T12:00:14;7.80;;;4.50;;
12896;SDS011;6516;35.028;32.372;2023-10-19T12:02:47;8.83;;;4.57;;
12896;SDS011;6516;35.028;32.372;2023-10-19T12:05:15;8.57;;;4.63;;
12896;SDS011;6516;35.028;32.372;2023-10-19T12:07:44;7.57;;;4.63;;
12896;SDS011;6516;35.028;32.372;2023-10-19T12:10:12;7.25;;;4.90;;
12896;SDS011;6516;35.028;32.372;2023-10-19T12:12:39;6.88;;;4.32;;
12896;SDS011;6516;35.028;32.372;2023-10-19T12:15:08;6.53;;;4.20;;
12896;SDS011;6516;35.028;32.372;2023-10-19T12:17:37;6.82;;;4.65;;
12896;SDS011;6516;35.028;32.372;2023-10-19T12:20:06;7.13;;;4.40;;
12896;SDS011;6516;35.028;32.372;2023-10-19T12:22:34;7.28;;;4.50;;
12896;SDS011;6516;35.028;32.372;2023-10-19T12:25:06;8.35;;;4.40;;
12896;SDS011;6516;35.028;32.372;2023-10-19T12:27:35;8.47;;;4.87;;
12896;SDS011;6516;35.028;32.372;2023-10-19T12:30:03;8.02;;;4.57;;
12896;SDS011;6516;35.028;32.372;2023-10-19T12:32:42;8.40;;;4.72;;
12896;SDS011;6516;35.028;32.372;2023-10-19T12:35:10;7.53;;;4.60;;
12896;SDS011;6516;35.028;32.372;2023-10-19T12:37:38;7.90;;;4.95;;
12896;SDS011;6516;35.028;32.372;2023-10-19T12:40:13;6.90;;;4.97;;
12896;SDS011;6516;35.028;32.372;2023-10-19T12:42:53;7.45;;;4.93;;
12896;SDS011;6516;35.028;32.372;2023-10-19T12:45:23;7.47;;;4.80;;
12896;SDS011;6516;35.028;32.372;2023-10-19T12:47:52;7.40;;;4.93;;
12896;SDS011;6516;35.028;32.372;2023-10-19T12:50:20;7.72;;;4.75;;
12896;SDS011;6516;35.028;32.372;2023-10-19T12:52:49;7.43;;;4.97;;
12896;SDS011;6516;35.028;32.372;2023-10-19T12:55:18;6.93;;;4.90;;
12896;SDS011;6516;35.028;32.372;2023-10-19T12:57:46;8.35;;;4.72;;
12896;SDS011;6516;35.028;32.372;2023-10-19T13:00:16;7.50;;;5.10;;
12896;SDS011;6516;35.028;32.372;2023-10-19T13:02:51;7.80;;;5.00;;
12896;SDS011;6516;35.028;32.372;2023-10-19T13:05:25;6.90;;;5.00;;
12896;SDS011;6516;35.028;32.372;2023-10-19T13:07:59;8.57;;;5.20;;
12896;SDS011;6516;35.028;32.372;2023-10-19T13:10:30;7.25;;;5.00;;
12896;SDS011;6516;35.028;32.372;2023-10-19T13:13:02;7.75;;;5.32;;
12896;SDS011;6516;35.028;32.372;2023-10-19T13:15:32;7.95;;;4.97;;
12896;SDS011;6516;35.028;32.372;2023-10-19T13:18:01;8.70;;;5.30;;
12896;SDS011;6516;35.028;32.372;2023-10-19T13:20:31;9.05;;;5.38;;
12896;SDS011;6516;35.028;32.372;2023-10-19T13:23:00;9.63;;;5.35;;
12896;SDS011;6516;35.028;32.372;2023-10-19T13:25:31;8.02;;;5.35;;
12896;SDS011;6516;35.028;32.372;2023-10-19T13:28:12;8.95;;;5.68;;
12896;SDS011;6516;35.028;32.372;2023-10-19T13:30:42;9.57;;;5.80;;
12896;SDS011;6516;35.028;32.372;2023-10-19T13:33:14;7.80;;;5.65;;
12896;SDS011;6516;35.028;32.372;2023-10-19T13:35:43;7.80;;;5.63;;
12896;SDS011;6516;35.028;32.372;2023-10-19T13:38:13;8.18;;;5.57;;
12896;SDS011;6516;35.028;32.372;2023-10-19T13:40:44;9.27;;;5.50;;
12896;SDS011;6516;35.028;32.372;2023-10-19T13:43:12;7.47;;;5.30;;
12896;SDS011;6516;35.028;32.372;2023-10-19T13:45:42;9.05;;;5.40;;
12896;SDS011;6516;35.028;32.372;2023-10-19T13:48:10;7.63;;;5.65;;
12896;SDS011;6516;35.028;32.372;2023-10-19T13:50:41;7.22;;;5.50;;
12896;SDS011;6516;35.028;32.372;2023-10-19T13:53:11;9.13;;;5.80;;
12896;SDS011;6516;35.028;32.372;2023-10-19T13:55:39;9.60;;;5.70;;
12896;SDS011;6516;35.028;32.372;2023-10-19T13:58:08;7.90;;;5.53;;
12896;SDS011;6516;35.028;32.372;2023-10-19T14:00:36;7.97;;;5.53;;
12896;SDS011;6516;35.028;32.372;2023-10-19T14:03:07;7.32;;;5.53;;
12896;SDS011;6516;35.028;32.372;2023-10-19T14:05:36;7.60;;;5.55;;
12896;SDS011;6516;35.028;32.372;2023-10-19T14:08:05;12.43;;;5.90;;
12896;SDS011;6516;35.028;32.372;2023-10-19T14:10:34;7.13;;;5.53;;
12896;SDS011;6516;35.028;32.372;2023-10-19T14:13:02;7.82;;;5.80;;
12896;SDS011;6516;35.028;32.372;2023-10-19T14:15:32;8.35;;;6.03;;
12896;SDS011;6516;35.028;32.372;2023-10-19T14:18:00;8.77;;;6.22;;
12896;SDS011;6516;35.028;32.372;2023-10-19T14:20:29;9.73;;;5.97;;
12896;SDS011;6516;35.028;32.372;2023-10-19T14:22:59;8.13;;;5.93;;
12896;SDS011;6516;35.028;32.372;2023-10-19T14:25:27;7.50;;;5.75;;
12896;SDS011;6516;35.028;32.372;2023-10-19T14:27:56;9.88;;;6.43;;
12896;SDS011;6516;35.028;32.372;2023-10-19T14:30:26;8.73;;;6.45;;
12896;SDS011;6516;35.028;32.372;2023-10-19T14:32:56;10.33;;;6.83;;
12896;SDS011;6516;35.028;32.372;2023-10-19T14:35:24;8.45;;;6.38;;
12896;SDS011;6516;35.028;32.372;2023-10-19T14:37:52;8.27;;;5.88;;
12896;SDS011;6516;35.028;32.372;2023-10-19T14:40:25;8.13;;;6.40;;
12896;SDS011;6516;35.028;32.372;2023-10-19T14:42:54;8.68;;;6.80;;
12896;SDS011;6516;35.028;32.372;2023-10-19T14:45:23;8.50;;;6.60;;
12896;SDS011;6516;35.028;32.372;2023-10-19T14:47:54;8.55;;;6.53;;
12896;SDS011;6516;35.028;32.372;2023-10-19T14:50:25;9.85;;;6.82;;
12896;SDS011;6516;35.028;32.372;2023-10-19T14:52:53;9.57;;;7.10;;
12896;SDS011;6516;35.028;32.372;2023-10-19T14:55:21;8.40;;;6.70;;
12896;SDS011;6516;35.028;32.372;2023-10-19T14:57:50;10.30;;;7.20;;
12896;SDS011;6516;35.028;32.372;2023-10-19T15:00:20;9.73;;;7.38;;
12896;SDS011;6516;35.028;32.372;2023-10-19T15:03:00;9.23;;;6.95;;